createdAt,value
2022-09-07T00:03:04.131Z,22.70
2022-09-07T00:05:35.073Z,22.80
2022-09-07T00:08:03.045Z,22.90
2022-09-07T00:10:30.385Z,22.80
2022-09-07T00:12:59.694Z,22.80
2022-09-07T00:15:27.014Z,22.90
2022-09-07T00:18:00.276Z,22.80
2022-09-07T00:23:08.126Z,22.90
2022-09-07T00:25:47.778Z,22.90
2022-09-07T00:28:16.375Z,22.90
2022-09-07T00:30:46.787Z,22.80
2022-09-07T00:33:14.074Z,22.70
2022-09-07T00:35:43.938Z,22.80
2022-09-07T00:38:11.754Z,23.00
2022-09-07T00:48:46.665Z,23.00
2022-09-07T00:51:18.217Z,23.20
2022-09-07T00:53:53.177Z,23.30
2022-09-07T00:56:24.205Z,23.30
2022-09-07T00:58:53.037Z,23.20
2022-09-07T01:01:21.169Z,23.30
2022-09-07T01:03:52.076Z,23.40
2022-09-07T01:12:04.946Z,23.90
2022-09-07T01:15:17.677Z,22.20
2022-09-07T01:18:33.146Z,20.60
2022-09-07T01:22:27.235Z,19.20
2022-09-07T01:25:17.563Z,18.20
2022-09-07T01:29:00.617Z,17.60
2022-09-07T01:32:28.184Z,17.30
2022-09-07T01:39:10.816Z,17.20
2022-09-07T01:42:56.926Z,17.00
2022-09-07T01:46:11.939Z,16.90
2022-09-07T01:49:18.271Z,16.90
2022-09-07T01:58:29.437Z,17.30
2022-09-07T02:04:42.598Z,17.20
2022-09-07T02:07:20.408Z,17.40
2022-09-07T02:09:55.344Z,17.40
2022-09-07T02:16:23.277Z,17.40
2022-09-07T02:19:23.914Z,17.60
2022-09-07T02:22:03.958Z,18.00
2022-09-07T02:25:48.406Z,18.00
2022-09-07T02:28:20.254Z,18.40
2022-09-07T02:30:49.465Z,18.60
2022-09-07T02:45:10.334Z,19.10
2022-09-07T02:48:52.974Z,19.40
2022-09-07T02:56:48.804Z,18.80
2022-09-07T02:59:25.653Z,18.70
2022-09-07T03:02:01.914Z,18.90
2022-09-07T03:04:40.925Z,19.00
2022-09-07T03:07:12.956Z,19.20
2022-09-07T03:09:45.496Z,19.20
2022-09-07T03:18:03.085Z,19.10
2022-09-07T03:20:30.466Z,18.90
2022-09-07T03:22:57.816Z,18.90
2022-09-07T03:25:27.565Z,18.90
2022-09-07T03:27:54.996Z,19.00
2022-09-07T03:30:22.419Z,19.20
2022-09-07T03:32:49.526Z,19.30
2022-09-07T03:43:17.205Z,19.60
2022-09-07T03:45:44.896Z,19.70
2022-09-07T03:48:12.450Z,19.70
2022-09-07T03:50:39.886Z,19.80
2022-09-07T03:53:07.437Z,19.80
2022-09-07T03:55:35.125Z,19.70
2022-09-07T03:58:02.786Z,19.50
2022-09-07T04:00:32.376Z,19.50
2022-09-07T04:08:06.001Z,19.50
2022-09-07T04:10:37.944Z,19.60
2022-09-07T04:13:05.652Z,19.60
2022-09-07T04:15:36.064Z,19.50
2022-09-07T04:18:03.704Z,19.50
2022-09-07T04:20:31.323Z,19.40
2022-09-07T04:22:58.744Z,19.40
2022-09-07T04:28:22.504Z,19.20
2022-09-07T04:30:51.709Z,19.20
2022-09-07T04:33:19.154Z,19.00
2022-09-07T04:35:49.196Z,19.00
2022-09-07T04:38:17.587Z,19.00
2022-09-07T04:40:44.975Z,19.10
2022-09-07T04:43:12.904Z,19.10
2022-09-07T04:51:06.114Z,19.20
2022-09-07T04:53:34.206Z,18.90
2022-09-07T04:56:02.607Z,18.90
2022-09-07T04:58:30.789Z,19.10
2022-09-07T05:01:02.171Z,19.20
2022-09-07T05:03:29.629Z,19.30
2022-09-07T05:05:58.084Z,19.40
2022-09-07T05:16:15.895Z,19.50
2022-09-07T05:18:44.323Z,18.80
2022-09-07T05:21:14.076Z,18.50
2022-09-07T05:23:41.898Z,18.80
2022-09-07T05:26:10.974Z,18.90
2022-09-07T05:28:38.591Z,19.00
2022-09-07T05:31:23.230Z,19.00
2022-09-07T05:36:32.938Z,19.00
2022-09-07T05:39:00.874Z,19.10
2022-09-07T05:41:28.558Z,19.20
2022-09-07T05:46:44.546Z,19.20
2022-09-07T05:49:12.569Z,19.20
2022-09-07T05:51:41.275Z,19.30
2022-09-07T05:56:48.355Z,19.40
2022-09-07T05:59:16.015Z,19.40
2022-09-07T06:01:44.170Z,19.40
2022-09-07T06:04:11.595Z,19.40
2022-09-07T06:06:39.666Z,19.40
2022-09-07T06:09:11.264Z,19.40
2022-09-07T06:11:39.084Z,19.50
2022-09-07T06:22:43.328Z,19.70
2022-09-07T06:25:10.916Z,19.70
2022-09-07T06:27:38.556Z,19.70
2022-09-07T06:30:07.552Z,19.80
2022-09-07T06:35:10.122Z,19.90
2022-09-07T06:37:38.528Z,20.00
2022-09-07T06:45:12.615Z,20.10
2022-09-07T06:47:41.132Z,20.20
2022-09-07T06:50:09.927Z,20.10
2022-09-07T06:55:25.166Z,20.30
2022-09-07T06:57:54.272Z,20.40
2022-09-07T07:00:22.487Z,20.40
2022-09-07T07:05:51.585Z,20.30
2022-09-07T07:08:19.344Z,20.40
2022-09-07T07:10:46.344Z,20.50
2022-09-07T07:15:41.242Z,20.80
2022-09-07T07:18:20.427Z,20.90
2022-09-07T07:20:50.484Z,21.10
2022-09-07T07:26:17.457Z,21.10
2022-09-07T07:29:02.319Z,21.50
2022-09-07T07:31:32.745Z,21.70
2022-09-07T07:34:00.563Z,21.70
2022-09-07T07:36:28.576Z,21.80
2022-09-07T07:39:00.779Z,22.00
2022-09-07T07:49:19.986Z,22.30
2022-09-07T07:54:36.196Z,22.60
2022-09-07T07:57:03.802Z,22.80
2022-09-07T07:59:31.768Z,22.90
2022-09-07T08:02:03.942Z,22.60
2022-09-07T08:07:13.424Z,22.50
2022-09-07T08:09:41.749Z,22.30
2022-09-07T08:12:10.766Z,22.30
2022-09-07T08:14:40.227Z,21.90
2022-09-07T08:17:08.600Z,22.10
2022-09-07T08:19:38.115Z,22.40
2022-09-07T08:22:06.843Z,22.20
2022-09-07T08:27:32.175Z,22.30
2022-09-07T08:29:59.635Z,22.10
2022-09-07T08:32:27.148Z,22.00
2022-09-07T08:34:54.418Z,21.80
2022-09-07T08:37:22.277Z,22.10
2022-09-07T08:39:50.174Z,22.70
2022-09-07T08:42:45.575Z,23.10
2022-09-07T08:50:22.738Z,22.90
2022-09-07T08:52:53.384Z,23.40
2022-09-07T08:55:27.114Z,23.30
2022-09-07T08:58:01.854Z,23.00
2022-09-07T09:00:30.884Z,23.10
2022-09-07T09:13:35.326Z,23.90
2022-09-07T09:19:47.704Z,24.00
2022-09-07T09:22:27.908Z,23.80
2022-09-07T09:29:34.614Z,24.10
2022-09-07T09:36:14.544Z,24.60
2022-09-07T09:42:17.110Z,25.10
2022-09-07T09:45:09.594Z,25.00
2022-09-07T09:47:37.180Z,25.50
2022-09-07T10:12:38.774Z,26.80
2022-09-07T10:15:08.123Z,27.40
2022-09-07T10:18:06.339Z,27.10
2022-09-07T10:20:42.786Z,26.90
2022-09-07T10:23:37.937Z,26.90
2022-09-07T10:26:33.208Z,27.00
2022-09-07T10:29:51.424Z,26.70
2022-09-07T10:32:29.910Z,26.70
2022-09-07T10:35:29.538Z,26.90
2022-09-07T10:38:11.144Z,27.10
2022-09-07T10:41:05.707Z,26.50
2022-09-07T10:46:57.575Z,25.90
2022-09-07T10:49:30.587Z,26.20
2022-09-07T10:52:04.005Z,26.20
2022-09-07T10:54:38.396Z,26.50
2022-09-07T10:57:35.177Z,26.70
2022-09-07T11:00:08.518Z,26.70
2022-09-07T11:12:05.854Z,26.90
2022-09-07T11:14:58.053Z,25.80
2022-09-07T11:17:52.603Z,25.60
2022-09-07T11:24:26.054Z,26.20
2022-09-07T11:27:25.651Z,26.60
2022-09-07T11:30:11.414Z,26.80
2022-09-07T11:33:30.716Z,27.10
2022-09-07T11:36:12.421Z,27.00
2022-09-07T11:39:02.133Z,27.20
2022-09-07T11:44:13.234Z,27.20
2022-09-07T11:46:44.968Z,26.50
2022-09-07T11:49:22.576Z,26.50
2022-09-07T11:51:54.356Z,26.00
2022-09-07T11:54:36.137Z,25.60
2022-09-07T11:57:30.974Z,25.40
2022-09-07T12:00:06.626Z,25.50
2022-09-07T12:11:34.246Z,26.50
2022-09-07T12:15:10.296Z,26.60
2022-09-07T12:17:58.776Z,26.50
2022-09-07T12:20:55.992Z,25.90
2022-09-07T12:27:33.296Z,26.60
2022-09-07T12:30:49.949Z,27.20
2022-09-07T12:34:31.416Z,27.20
2022-09-07T12:50:40.464Z,26.60
2022-09-07T12:54:03.044Z,25.90
2022-09-07T13:00:01.086Z,25.60
2022-09-07T13:07:01.648Z,25.90
2022-09-07T13:13:16.140Z,26.20
2022-09-07T13:15:59.190Z,26.70
2022-09-07T13:18:43.966Z,26.80
2022-09-07T13:21:35.156Z,26.90
2022-09-07T13:27:51.238Z,27.40
2022-09-07T13:30:46.156Z,27.30
2022-09-07T13:33:47.449Z,27.00
2022-09-07T13:36:26.451Z,26.90
2022-09-07T13:38:54.922Z,27.00
2022-09-07T13:41:25.511Z,27.10
2022-09-07T13:43:59.677Z,27.20
2022-09-07T13:55:56.934Z,27.80
2022-09-07T13:58:56.576Z,27.60
2022-09-07T14:01:27.471Z,27.80
2022-09-07T14:04:10.132Z,27.60
2022-09-07T14:06:41.934Z,27.00
2022-09-07T14:09:18.456Z,26.60
2022-09-07T14:11:53.794Z,26.50
2022-09-07T14:14:38.526Z,26.70
2022-09-07T14:17:31.738Z,26.30
2022-09-07T14:20:38.313Z,25.90
2022-09-07T14:26:22.754Z,25.90
2022-09-07T14:28:54.094Z,26.10
2022-09-07T14:31:23.942Z,26.20
2022-09-07T14:33:54.676Z,25.80
2022-09-07T14:36:44.072Z,25.70
2022-09-07T14:39:15.065Z,25.70
2022-09-07T14:41:44.817Z,25.80
2022-09-07T15:02:56.057Z,26.40
2022-09-07T15:05:26.333Z,26.50
2022-09-07T15:07:56.053Z,26.00
2022-09-07T15:10:34.676Z,26.50
2022-09-07T15:13:03.536Z,26.80
2022-09-07T15:15:34.295Z,26.80
2022-09-07T15:23:27.811Z,26.80
2022-09-07T15:25:58.465Z,26.10
2022-09-07T15:34:12.327Z,25.70
2022-09-07T15:36:42.465Z,25.90
2022-09-07T15:39:17.646Z,26.20
2022-09-07T15:50:01.966Z,26.00
2022-09-07T15:52:49.958Z,25.90
2022-09-07T15:55:30.774Z,25.80
2022-09-07T15:58:14.419Z,25.50
2022-09-07T16:00:44.686Z,25.70
2022-09-07T16:03:17.056Z,25.70
2022-09-07T16:05:45.395Z,25.70
2022-09-07T16:11:04.517Z,26.00
2022-09-07T16:13:32.985Z,26.10
2022-09-07T16:16:01.805Z,26.30
2022-09-07T16:18:31.996Z,26.30
2022-09-07T16:21:11.502Z,26.00
2022-09-07T16:23:43.106Z,26.00
2022-09-07T16:26:13.204Z,26.10
2022-09-07T16:31:26.666Z,26.30
2022-09-07T16:33:54.915Z,26.40
2022-09-07T16:36:28.017Z,26.50
2022-09-07T16:38:56.580Z,26.90
2022-09-07T16:41:26.645Z,26.90
2022-09-07T16:43:54.984Z,26.90
2022-09-07T16:46:27.005Z,26.80
2022-09-07T16:51:36.694Z,26.80
2022-09-07T16:54:06.354Z,26.80
2022-09-07T16:56:38.923Z,26.40
2022-09-07T16:59:10.153Z,26.20
2022-09-07T17:01:38.513Z,26.10
2022-09-07T17:04:11.537Z,26.00
2022-09-07T17:06:46.467Z,26.00
2022-09-07T17:13:48.467Z,26.10
2022-09-07T17:16:19.207Z,26.20
2022-09-07T17:21:42.271Z,26.20
2022-09-07T17:24:14.536Z,26.00
2022-09-07T17:26:45.185Z,25.90
2022-09-07T17:34:53.075Z,25.70
2022-09-07T17:37:23.347Z,25.50
2022-09-07T17:39:53.338Z,25.30
2022-09-07T17:42:21.328Z,25.40
2022-09-07T17:44:52.865Z,25.20
2022-09-07T17:47:22.578Z,25.20
2022-09-07T17:54:57.705Z,25.40
2022-09-07T17:57:26.254Z,25.50
2022-09-07T18:02:44.715Z,25.50
2022-09-07T18:05:13.236Z,25.70
2022-09-07T18:07:40.194Z,25.70
2022-09-07T18:17:54.819Z,25.40
2022-09-07T18:20:24.525Z,25.40
2022-09-07T18:22:53.296Z,25.40
2022-09-07T18:25:20.940Z,25.50
2022-09-07T18:29:03.158Z,25.40
2022-09-07T18:30:44.057Z,25.50
2022-09-07T18:33:12.657Z,25.40
2022-09-07T18:40:45.705Z,25.70
2022-09-07T18:43:13.727Z,25.50
2022-09-07T18:45:45.114Z,25.50
2022-09-07T18:48:15.306Z,25.30
2022-09-07T18:50:50.493Z,25.00
2022-09-07T18:53:20.778Z,24.80
2022-09-07T18:55:56.059Z,24.50
2022-09-07T19:02:50.737Z,24.00
2022-09-07T19:08:13.376Z,23.80
2022-09-07T19:10:46.737Z,23.70
2022-09-07T19:13:17.267Z,23.70
2022-09-07T19:15:45.341Z,23.70
2022-09-07T19:24:08.657Z,23.50
2022-09-07T19:26:40.067Z,23.40
2022-09-07T19:29:19.306Z,23.30
2022-09-07T19:32:04.662Z,23.10
2022-09-07T19:34:36.039Z,23.20
2022-09-07T19:37:06.739Z,23.10
2022-09-07T19:39:37.531Z,23.20
2022-09-07T19:47:12.215Z,23.30
2022-09-07T19:49:40.799Z,23.40
2022-09-07T19:52:08.938Z,23.40
2022-09-07T19:54:38.345Z,23.40
2022-09-07T19:57:09.229Z,23.30
2022-09-07T19:59:38.624Z,23.20
2022-09-07T20:02:08.738Z,22.90
2022-09-07T20:09:41.827Z,23.20
2022-09-07T20:12:09.898Z,22.70
2022-09-07T20:14:43.937Z,22.70
2022-09-07T20:17:12.698Z,22.90
2022-09-07T20:19:43.035Z,23.10
2022-09-07T20:22:11.885Z,23.20
2022-09-07T20:24:44.627Z,23.20
2022-09-07T20:32:29.575Z,23.30
2022-09-07T20:35:09.136Z,23.40
2022-09-07T20:37:40.397Z,23.40
2022-09-07T20:40:12.771Z,23.50
2022-09-07T20:42:42.265Z,23.50
2022-09-07T20:45:17.707Z,23.50
2022-09-07T20:47:47.618Z,23.50
2022-09-07T20:55:49.618Z,23.50
2022-09-07T20:58:20.829Z,23.60
2022-09-07T21:00:54.066Z,23.50
2022-09-07T21:03:26.461Z,23.60
2022-09-07T21:05:54.198Z,23.40
2022-09-07T21:08:21.468Z,23.30
2022-09-07T21:10:49.668Z,23.30
2022-09-07T21:18:21.828Z,23.30
2022-09-07T21:21:18.912Z,23.50
2022-09-07T21:23:45.326Z,23.40
2022-09-07T21:26:12.779Z,23.20
2022-09-07T21:28:40.267Z,23.10
2022-09-07T21:31:08.681Z,23.10
2022-09-07T21:33:37.519Z,23.20
2022-09-07T21:41:11.687Z,23.40
2022-09-07T21:43:39.425Z,23.20
2022-09-07T21:46:08.206Z,23.00
2022-09-07T21:48:36.237Z,23.00
2022-09-07T21:51:03.657Z,23.30
2022-09-07T21:53:31.354Z,23.30
2022-09-07T21:56:02.861Z,23.10
2022-09-07T22:03:36.485Z,23.20
2022-09-07T22:06:03.508Z,23.30
2022-09-07T22:08:30.755Z,23.20
2022-09-07T22:11:05.565Z,23.20
2022-09-07T22:13:33.699Z,23.10
2022-09-07T22:16:02.651Z,23.10
2022-09-07T22:18:34.018Z,23.10
2022-09-07T22:26:09.517Z,23.10
2022-09-07T22:28:37.766Z,23.10
2022-09-07T22:31:10.513Z,23.10
2022-09-07T22:33:38.115Z,23.00
2022-09-07T22:36:11.497Z,23.10
2022-09-07T22:38:39.709Z,22.90
2022-09-07T22:41:09.405Z,22.90
2022-09-07T22:43:37.018Z,22.90
2022-09-07T22:51:09.759Z,22.90
2022-09-07T22:53:38.925Z,22.70
2022-09-07T22:56:07.607Z,22.70
2022-09-07T22:58:35.677Z,22.60
2022-09-07T23:01:03.437Z,22.40
2022-09-07T23:03:32.803Z,22.40
2022-09-07T23:06:00.467Z,22.40
2022-09-07T23:13:29.649Z,22.40
2022-09-07T23:15:56.724Z,22.30
2022-09-07T23:18:23.668Z,22.40
2022-09-07T23:20:50.485Z,22.40
2022-09-07T23:23:17.888Z,22.30
2022-09-07T23:25:45.080Z,22.30
2022-09-07T23:28:12.627Z,22.30
2022-09-07T23:35:55.145Z,22.30
2022-09-07T23:38:22.836Z,22.20
2022-09-07T23:40:50.434Z,22.20
2022-09-07T23:43:18.297Z,22.30
2022-09-07T23:45:46.617Z,22.30
2022-09-07T23:48:14.237Z,22.30
2022-09-07T23:50:44.537Z,22.30
2022-09-07T23:58:16.877Z,22.40
